createdAt,value
2018-05-27T10:26:53.927Z,405.00
2018-05-27T10:27:53.824Z,410.63
2018-05-27T10:29:48.303Z,433.13
2018-05-27T10:30:47.841Z,433.13
2018-05-27T10:32:41.250Z,410.63
2018-05-27T10:33:41.224Z,388.13
2018-05-27T10:35:34.152Z,326.25
2018-05-27T10:36:34.218Z,303.75
2018-05-27T10:38:27.558Z,264.38
2018-05-27T10:39:27.349Z,247.50
2018-05-27T10:41:20.554Z,230.63
2018-05-27T10:42:20.300Z,230.63
2018-05-27T10:44:14.579Z,253.13
2018-05-27T10:45:13.725Z,264.38
2018-05-27T10:47:07.552Z,270.00
2018-05-27T10:48:06.631Z,264.38
2018-05-27T10:50:01.394Z,264.38
2018-05-27T10:50:59.567Z,264.38
2018-05-27T10:52:53.250Z,264.38
2018-05-27T10:53:53.158Z,253.13
2018-05-27T10:55:48.990Z,208.13
2018-05-27T10:56:47.147Z,174.38
2018-05-27T10:58:39.999Z,118.13
2018-05-27T10:59:39.495Z,106.88
2018-05-27T11:01:33.450Z,101.25
2018-05-27T11:02:32.880Z,101.25
2018-05-27T11:04:26.603Z,95.63
2018-05-27T11:05:26.295Z,90.00
2018-05-27T11:07:19.608Z,73.13
2018-05-27T11:08:19.473Z,67.50
2018-05-27T11:10:13.220Z,56.25
2018-05-27T11:11:12.573Z,56.25
2018-05-27T11:13:05.981Z,50.63
2018-05-27T11:14:05.997Z,45.00
2018-05-27T11:15:59.999Z,45.00
2018-05-27T11:16:59.365Z,39.38
2018-05-27T11:18:52.589Z,39.38
2018-05-27T11:19:52.273Z,33.75
2018-05-27T11:21:45.512Z,33.75
2018-05-27T11:22:45.178Z,33.75
2018-05-27T11:24:38.927Z,28.13
2018-05-27T11:25:38.549Z,28.13
2018-05-27T11:27:31.760Z,28.13
2018-05-27T11:28:31.639Z,28.13
2018-05-27T11:30:25.249Z,28.13
2018-05-27T11:31:24.853Z,28.13
2018-05-27T11:33:18.363Z,28.13
2018-05-27T11:34:20.335Z,22.50
2018-05-27T11:36:11.275Z,22.50
2018-05-27T11:37:11.293Z,22.50
2018-05-27T11:39:04.701Z,22.50
2018-05-27T11:40:04.665Z,22.50
2018-05-27T11:41:58.816Z,22.50
2018-05-27T11:42:59.044Z,22.50
2018-05-27T11:44:52.479Z,22.50
2018-05-27T11:45:52.463Z,22.50
2018-05-27T11:47:45.861Z,22.50
2018-05-27T11:48:45.832Z,22.50
2018-05-27T11:50:39.323Z,22.50
2018-05-27T11:51:39.229Z,22.50
2018-05-27T11:53:32.583Z,22.50
2018-05-27T11:54:32.583Z,22.50
2018-05-27T11:56:25.971Z,22.50
2018-05-27T11:57:27.315Z,22.50
2018-05-27T11:59:19.459Z,22.50
2018-05-27T12:00:19.349Z,22.50
2018-05-27T12:02:13.817Z,28.13
2018-05-27T12:03:13.471Z,28.13
2018-05-27T12:05:07.205Z,28.13
2018-05-27T12:06:07.447Z,28.13
2018-05-27T12:08:01.561Z,28.13
2018-05-27T12:09:01.668Z,28.13
2018-05-27T12:10:54.925Z,28.13
2018-05-27T12:11:54.632Z,28.13
2018-05-27T12:13:50.910Z,28.13
2018-05-27T12:14:48.812Z,33.75
2018-05-27T12:16:41.716Z,33.75
2018-05-27T12:17:41.370Z,33.75
2018-05-27T12:19:35.363Z,39.38
2018-05-27T12:20:35.064Z,39.38
2018-05-27T12:22:28.194Z,39.38
2018-05-27T12:23:28.488Z,39.38
2018-05-27T12:25:21.896Z,45.00
2018-05-27T12:26:21.843Z,45.00
2018-05-27T12:28:15.338Z,50.63
2018-05-27T12:29:15.263Z,50.63
2018-05-27T12:31:10.264Z,56.25
2018-05-27T12:32:09.704Z,61.88
2018-05-27T12:34:03.066Z,73.13
2018-05-27T12:35:02.553Z,84.38
2018-05-27T12:36:56.534Z,106.88
2018-05-27T12:37:55.953Z,118.13
2018-05-27T12:39:49.293Z,157.50
2018-05-27T12:40:49.174Z,180.00
2018-05-27T12:42:42.237Z,225.00
2018-05-27T12:43:42.170Z,247.50
2018-05-27T12:45:35.660Z,286.88
2018-05-27T12:46:35.659Z,303.75
2018-05-27T12:48:29.882Z,315.00
2018-05-27T12:49:28.987Z,320.63
2018-05-27T12:51:23.421Z,337.50
2018-05-27T12:52:22.755Z,343.13
2018-05-27T12:54:16.250Z,360.00
2018-05-27T12:55:16.168Z,365.63
2018-05-27T12:57:12.118Z,376.88
2018-05-27T12:58:13.161Z,371.25
2018-05-27T13:00:05.544Z,360.00
2018-05-27T13:01:07.878Z,354.38
2018-05-27T13:02:58.859Z,348.75
2018-05-27T13:03:58.531Z,348.75
2018-05-27T13:05:52.280Z,365.63
2018-05-27T13:06:52.316Z,371.25
2018-05-27T13:08:46.166Z,376.88
2018-05-27T13:09:45.395Z,371.25
2018-05-27T13:11:39.040Z,348.75
2018-05-27T13:12:38.077Z,343.13
2018-05-27T13:14:31.544Z,337.50
2018-05-27T13:15:31.541Z,337.50
2018-05-27T13:17:31.108Z,326.25
2018-05-27T13:18:25.956Z,326.25
2018-05-27T13:20:26.226Z,326.25
2018-05-27T13:21:20.206Z,320.63
2018-05-27T13:23:13.679Z,320.63
2018-05-27T13:24:13.314Z,315.00
2018-05-27T13:26:07.081Z,315.00
2018-05-27T13:27:07.075Z,320.63
2018-05-27T13:29:00.095Z,326.25
2018-05-27T13:30:00.483Z,320.63
2018-05-27T13:31:53.701Z,309.38
2018-05-27T13:32:53.444Z,298.13
2018-05-27T13:34:47.134Z,281.25
2018-05-27T13:35:46.836Z,275.63
2018-05-27T13:37:40.621Z,264.38
2018-05-27T13:38:40.491Z,253.13
2018-05-27T13:40:33.522Z,236.25
2018-05-27T13:41:33.827Z,236.25
2018-05-27T13:43:26.023Z,219.38
2018-05-27T13:44:26.293Z,213.75
2018-05-27T13:46:19.790Z,213.75
2018-05-27T13:47:19.258Z,213.75
2018-05-27T13:49:11.834Z,219.38
2018-05-27T13:50:11.806Z,219.38
2018-05-27T13:52:05.503Z,219.38
2018-05-27T13:53:05.187Z,219.38
2018-05-27T13:54:59.890Z,219.38
2018-05-27T13:55:58.075Z,225.00
2018-05-27T13:57:58.310Z,230.63
2018-05-27T14:00:06.147Z,241.88
2018-05-27T14:01:06.468Z,230.63
2018-05-27T14:02:56.875Z,219.38
2018-05-27T14:03:56.885Z,213.75
2018-05-27T14:05:50.567Z,208.13
2018-05-27T14:06:50.404Z,213.75
2018-05-27T14:08:44.021Z,213.75
2018-05-27T14:09:43.955Z,208.13
2018-05-27T14:11:37.373Z,213.75
2018-05-27T14:12:37.315Z,219.38
2018-05-27T14:14:34.817Z,219.38
2018-05-27T14:15:31.409Z,213.75
2018-05-27T14:17:24.706Z,202.50
2018-05-27T14:18:24.327Z,191.25
2018-05-27T14:20:18.011Z,180.00
2018-05-27T14:21:17.735Z,180.00
2018-05-27T14:23:12.688Z,180.00
2018-05-27T14:24:11.471Z,180.00
2018-05-27T14:26:05.102Z,174.38
2018-05-27T14:27:04.777Z,180.00
2018-05-27T14:28:57.405Z,185.63
2018-05-27T14:29:57.706Z,196.88
2018-05-27T14:31:51.134Z,202.50
2018-05-27T14:32:51.055Z,196.88
2018-05-27T14:34:44.468Z,180.00
2018-05-27T14:35:44.466Z,185.63
2018-05-27T14:37:37.469Z,196.88
2018-05-27T14:38:37.041Z,196.88
2018-05-27T14:40:29.940Z,213.75
2018-05-27T14:41:30.399Z,219.38
2018-05-27T14:43:23.795Z,230.63
2018-05-27T14:44:23.627Z,230.63
2018-05-27T14:46:17.061Z,236.25
2018-05-27T14:47:17.124Z,236.25
2018-05-27T14:49:10.101Z,236.25
2018-05-27T14:50:09.916Z,236.25
2018-05-27T14:52:04.406Z,213.75
2018-05-27T14:53:03.629Z,202.50
2018-05-27T14:54:56.791Z,180.00
2018-05-27T14:55:56.436Z,174.38
2018-05-27T14:57:49.734Z,168.75
2018-05-27T14:58:50.294Z,174.38
2018-05-27T15:00:44.377Z,174.38
2018-05-27T15:01:43.737Z,168.75
2018-05-27T15:03:38.742Z,157.50
2018-05-27T15:04:38.434Z,157.50
2018-05-27T15:06:30.699Z,163.13
2018-05-27T15:07:30.701Z,163.13
2018-05-27T15:09:24.389Z,174.38
2018-05-27T15:10:24.138Z,180.00
2018-05-27T15:12:17.872Z,174.38
2018-05-27T15:13:17.507Z,174.38
2018-05-27T15:15:11.300Z,163.13
2018-05-27T15:16:11.169Z,157.50
2018-05-27T15:18:04.657Z,129.38
2018-05-27T15:19:04.641Z,123.75
2018-05-27T15:20:59.074Z,112.50
2018-05-27T15:21:59.055Z,112.50
2018-05-27T15:23:51.939Z,101.25
2018-05-27T15:24:51.918Z,95.63
2018-05-27T15:26:45.833Z,90.00
2018-05-27T15:27:45.365Z,90.00
2018-05-27T15:29:38.689Z,84.38
2018-05-27T15:30:38.793Z,84.38
2018-05-27T15:32:32.086Z,78.75
2018-05-27T15:33:31.824Z,78.75
2018-05-27T15:35:24.986Z,67.50
2018-05-27T15:36:24.943Z,61.88
2018-05-27T15:38:18.351Z,56.25
2018-05-27T15:39:18.324Z,50.63
2018-05-27T15:41:11.734Z,45.00
2018-05-27T15:42:11.796Z,45.00
2018-05-27T15:44:06.205Z,39.38
2018-05-27T15:45:05.108Z,39.38
2018-05-27T15:46:58.318Z,39.38
2018-05-27T15:47:58.514Z,39.38
2018-05-27T15:49:52.526Z,39.38
2018-05-27T15:50:51.927Z,39.38
2018-05-27T15:52:44.833Z,45.00
2018-05-27T15:53:45.005Z,45.00
2018-05-27T15:55:39.811Z,45.00
2018-05-27T15:56:38.975Z,45.00
2018-05-27T15:58:32.298Z,50.63
2018-05-27T15:59:32.171Z,50.63
2018-05-27T16:01:25.007Z,56.25
2018-05-27T16:02:25.003Z,61.88
2018-05-27T16:04:18.455Z,61.88
2018-05-27T16:05:18.078Z,67.50
2018-05-27T16:07:11.852Z,78.75
2018-05-27T16:08:11.990Z,84.38
2018-05-27T16:10:04.713Z,95.63
2018-05-27T16:11:04.357Z,101.25
2018-05-27T16:12:57.756Z,118.13
2018-05-27T16:13:57.746Z,123.75
2018-05-27T16:15:51.518Z,118.13
2018-05-27T16:16:51.374Z,118.13
2018-05-27T16:18:44.846Z,112.50
2018-05-27T16:19:44.560Z,112.50
2018-05-27T16:21:40.232Z,112.50
2018-05-27T16:22:37.458Z,118.13
2018-05-27T16:24:31.849Z,118.13
2018-05-27T16:25:31.757Z,118.13
2018-05-27T16:27:24.859Z,112.50
2018-05-27T16:28:24.307Z,112.50
2018-05-27T16:30:18.678Z,101.25
2018-05-27T16:31:18.661Z,95.63
2018-05-27T16:33:11.932Z,84.38
2018-05-27T16:34:24.450Z,78.75
2018-05-27T16:41:01.120Z,73.13
2018-05-27T16:41:41.281Z,73.13
2018-05-27T16:43:33.819Z,67.50
2018-05-27T16:44:33.498Z,67.50
2018-05-27T16:46:26.868Z,56.25
2018-05-27T16:47:26.605Z,56.25
2018-05-27T16:49:20.325Z,50.63
2018-05-27T16:50:21.798Z,50.63
2018-05-27T16:52:13.751Z,56.25
2018-05-27T16:53:13.676Z,56.25
2018-05-27T16:55:06.626Z,56.25
2018-05-27T16:56:06.677Z,56.25
2018-05-27T16:58:02.567Z,45.00
2018-05-27T16:58:59.815Z,45.00
2018-05-27T17:00:52.710Z,33.75
2018-05-27T17:01:52.991Z,33.75
2018-05-27T17:03:48.432Z,28.13
2018-05-27T17:04:46.910Z,28.13
2018-05-27T17:06:39.834Z,22.50
2018-05-27T17:07:39.450Z,22.50
2018-05-27T17:09:35.291Z,16.88
2018-05-27T17:10:33.455Z,16.88
2018-05-27T17:12:27.773Z,16.88
2018-05-27T17:13:27.313Z,16.88
2018-05-27T17:15:20.740Z,16.88
2018-05-27T17:16:20.085Z,16.88
2018-05-27T17:18:13.468Z,11.25
2018-05-27T17:19:13.770Z,11.25
2018-05-27T17:21:07.146Z,5.63
2018-05-27T17:22:06.807Z,5.63
2018-05-27T17:24:00.244Z,5.63
2018-05-27T17:25:00.620Z,5.63
2018-05-27T17:26:53.944Z,5.63
2018-05-27T17:27:53.904Z,5.63
2018-05-27T17:29:47.589Z,5.63
2018-05-27T17:30:47.318Z,5.63
2018-05-27T17:32:40.847Z,5.63
2018-05-27T17:33:40.447Z,5.63
2018-05-27T17:35:33.936Z,5.63
2018-05-27T17:36:33.392Z,5.63
2018-05-27T17:38:27.079Z,5.63
2018-05-27T17:39:27.065Z,5.63
2018-05-27T17:41:20.611Z,0.00
2018-05-27T17:42:20.043Z,0.00
2018-05-27T17:44:14.413Z,0.00
2018-05-27T17:45:14.325Z,0.00
2018-05-27T17:47:07.738Z,0.00
2018-05-27T17:48:07.343Z,0.00
2018-05-27T17:50:01.315Z,0.00
2018-05-27T17:51:00.714Z,0.00
2018-05-27T17:52:54.448Z,0.00
2018-05-27T17:53:53.926Z,0.00
2018-05-27T17:55:47.319Z,0.00
2018-05-27T17:56:47.378Z,0.00
2018-05-27T17:58:40.291Z,0.00
2018-05-27T17:59:40.339Z,0.00
2018-05-27T18:01:33.030Z,0.00
2018-05-27T18:02:33.163Z,0.00
2018-05-27T18:04:26.582Z,0.00
2018-05-27T18:05:26.558Z,0.00
2018-05-27T18:07:19.905Z,0.00
2018-05-27T18:08:19.533Z,0.00
2018-05-27T18:10:13.290Z,0.00
2018-05-27T18:11:12.946Z,0.00
2018-05-27T18:13:06.612Z,0.00
2018-05-27T18:14:06.642Z,0.00
2018-05-27T18:16:00.299Z,0.00
2018-05-27T18:16:59.678Z,0.00
2018-05-27T18:18:54.084Z,0.00
2018-05-27T18:19:53.436Z,0.00
2018-05-27T18:21:46.869Z,0.00
2018-05-27T18:22:46.831Z,0.00
2018-05-27T18:24:40.742Z,0.00
2018-05-27T18:25:39.911Z,0.00
2018-05-27T18:27:32.718Z,0.00
2018-05-27T18:28:32.708Z,0.00
2018-05-27T18:30:26.346Z,0.00
2018-05-27T18:31:26.080Z,0.00
2018-05-27T18:33:18.994Z,0.00
2018-05-27T18:34:18.993Z,0.00
2018-05-27T18:36:12.451Z,0.00
2018-05-27T18:37:12.371Z,0.00
2018-05-27T18:39:05.610Z,0.00
2018-05-27T18:40:05.270Z,0.00
2018-05-27T18:41:58.348Z,0.00
2018-05-27T18:42:58.679Z,0.00
2018-05-27T18:44:51.786Z,0.00
2018-05-27T18:45:51.363Z,0.00
2018-05-27T18:47:44.363Z,0.00
2018-05-27T18:48:44.256Z,0.00
2018-05-27T18:50:38.599Z,0.00
2018-05-27T18:51:38.036Z,0.00
2018-05-27T18:53:31.544Z,0.00
2018-05-27T18:54:31.331Z,0.00
2018-05-27T18:56:26.672Z,0.00
2018-05-27T18:57:25.280Z,0.00
2018-05-27T18:59:19.027Z,0.00
2018-05-27T19:00:19.015Z,0.00
2018-05-27T19:02:13.513Z,0.00
2018-05-27T19:03:13.954Z,0.00
2018-05-27T19:05:06.813Z,0.00
2018-05-27T19:06:06.765Z,0.00
2018-05-27T19:07:59.739Z,0.00
2018-05-27T19:08:59.299Z,0.00
2018-05-27T19:10:53.358Z,0.00
2018-05-27T19:11:52.654Z,0.00
2018-05-27T19:13:45.885Z,0.00
2018-05-27T19:14:46.018Z,0.00
2018-05-27T19:16:39.506Z,0.00
2018-05-27T19:17:38.970Z,0.00
2018-05-27T19:19:32.838Z,0.00
2018-05-27T19:20:32.675Z,0.00
2018-05-27T19:22:26.167Z,0.00
2018-05-27T19:23:26.654Z,0.00
2018-05-27T19:25:20.995Z,0.00
2018-05-27T19:26:19.568Z,0.00
2018-05-27T19:28:12.360Z,0.00
2018-05-27T19:29:12.355Z,0.00
2018-05-27T19:31:05.370Z,0.00
2018-05-27T19:32:05.423Z,0.00
2018-05-27T19:33:59.355Z,0.00
2018-05-27T19:34:59.131Z,0.00
2018-05-27T19:36:54.781Z,0.00
2018-05-27T19:37:54.644Z,0.00
2018-05-27T19:39:49.068Z,0.00
2018-05-27T19:40:48.056Z,0.00
2018-05-27T19:42:41.844Z,0.00
2018-05-27T19:43:41.400Z,0.00
2018-05-27T19:45:35.224Z,0.00
2018-05-27T19:46:35.113Z,0.00
2018-05-27T19:48:30.834Z,0.00
2018-05-27T19:49:29.505Z,0.00
2018-05-27T19:51:22.673Z,0.00
2018-05-27T19:52:22.414Z,0.00
2018-05-27T19:54:15.864Z,0.00
2018-05-27T19:55:15.756Z,0.00
2018-05-27T19:57:09.230Z,0.00
2018-05-27T19:58:09.107Z,0.00
2018-05-27T20:00:02.577Z,0.00
2018-05-27T20:01:02.576Z,0.00
2018-05-27T20:02:59.325Z,0.00
2018-05-27T20:03:58.632Z,0.00
2018-05-27T20:05:51.434Z,0.00
2018-05-27T20:06:52.845Z,0.00
2018-05-27T20:08:44.956Z,0.00
2018-05-27T20:09:44.703Z,0.00
2018-05-27T20:11:38.230Z,0.00
2018-05-27T20:12:38.114Z,0.00
2018-05-27T20:14:32.888Z,0.00
2018-05-27T20:15:30.691Z,0.00
2018-05-27T20:17:28.563Z,0.00
2018-05-27T20:18:28.531Z,0.00
2018-05-27T20:20:23.781Z,0.00
2018-05-27T20:21:21.897Z,0.00
2018-05-27T20:23:17.214Z,0.00
2018-05-27T20:24:16.733Z,0.00
2018-05-27T20:26:10.129Z,0.00
2018-05-27T20:27:10.019Z,0.00
2018-05-27T20:29:03.494Z,0.00
2018-05-27T20:30:02.892Z,0.00
2018-05-27T20:31:55.894Z,0.00
2018-05-27T20:32:55.843Z,0.00
2018-05-27T20:34:49.864Z,0.00
2018-05-27T20:35:49.292Z,0.00
2018-05-27T20:37:42.743Z,0.00
2018-05-27T20:38:43.623Z,0.00
2018-05-27T20:40:37.528Z,0.00
2018-05-27T20:41:36.491Z,0.00
2018-05-27T20:43:30.499Z,0.00
2018-05-27T20:44:29.966Z,0.00
2018-05-27T20:46:23.887Z,0.00
2018-05-27T20:47:23.022Z,0.00
2018-05-27T20:49:17.343Z,0.00
2018-05-27T20:50:16.744Z,0.00
2018-05-27T20:52:10.600Z,0.00
2018-05-27T20:53:09.696Z,0.00
2018-05-27T20:55:03.108Z,0.00
2018-05-27T20:56:03.042Z,0.00
2018-05-27T20:57:56.481Z,0.00
2018-05-27T20:58:56.431Z,0.00
2018-05-27T21:00:49.835Z,0.00
2018-05-27T21:01:49.462Z,0.00
2018-05-27T21:03:43.735Z,0.00
2018-05-27T21:04:43.753Z,0.00
2018-05-27T21:06:36.662Z,0.00
2018-05-27T21:07:36.580Z,0.00
2018-05-27T21:09:30.056Z,0.00
2018-05-27T21:10:30.535Z,0.00
2018-05-27T21:12:23.885Z,0.00
2018-05-27T21:13:23.959Z,0.00
2018-05-27T21:15:17.310Z,0.00
2018-05-27T21:16:17.188Z,0.00
2018-05-27T21:18:10.155Z,0.00
2018-05-27T21:19:10.090Z,0.00
2018-05-27T21:21:04.520Z,0.00
2018-05-27T21:22:03.996Z,0.00
2018-05-27T21:23:59.392Z,0.00
2018-05-27T21:24:57.423Z,0.00
2018-05-27T21:26:50.817Z,0.00
2018-05-27T21:27:51.339Z,0.00
2018-05-27T21:29:44.829Z,0.00
2018-05-27T21:30:44.485Z,0.00
2018-05-27T21:32:38.852Z,0.00
2018-05-27T21:33:37.775Z,0.00
2018-05-27T21:35:31.269Z,0.00
2018-05-27T21:36:30.848Z,0.00
2018-05-27T21:38:24.651Z,0.00
2018-05-27T21:39:24.283Z,0.00
2018-05-27T21:41:17.944Z,0.00
2018-05-27T21:42:19.436Z,0.00
2018-05-27T21:44:12.968Z,0.00
2018-05-27T21:45:12.349Z,0.00
2018-05-27T21:47:06.270Z,0.00
2018-05-27T21:48:05.299Z,0.00
2018-05-27T21:49:58.171Z,0.00
2018-05-27T21:50:58.136Z,0.00
2018-05-27T21:52:51.501Z,0.00
2018-05-27T21:53:51.457Z,0.00
2018-05-27T21:55:45.512Z,0.00
2018-05-27T21:56:45.415Z,0.00
2018-05-27T21:58:38.771Z,0.00
2018-05-27T21:59:39.355Z,0.00
2018-05-27T22:01:31.715Z,0.00
2018-05-27T22:02:31.220Z,0.00
2018-05-27T22:04:25.086Z,0.00
2018-05-27T22:05:25.028Z,0.00
2018-05-27T22:07:18.909Z,0.00
2018-05-27T22:08:18.316Z,0.00
2018-05-27T22:10:12.389Z,0.00
2018-05-27T22:11:12.815Z,0.00
2018-05-27T22:13:05.328Z,0.00
2018-05-27T22:14:04.905Z,0.00
2018-05-27T22:15:58.735Z,0.00
2018-05-27T22:16:58.298Z,0.00
2018-05-27T22:18:52.615Z,0.00
2018-05-27T22:19:51.792Z,0.00
2018-05-27T22:21:46.931Z,0.00
2018-05-27T22:22:46.546Z,0.00
2018-05-27T22:24:40.380Z,0.00
2018-05-27T22:25:40.381Z,0.00
2018-05-27T22:27:32.818Z,0.00
2018-05-27T22:28:32.603Z,0.00
2018-05-27T22:30:26.696Z,0.00
2018-05-27T22:31:27.619Z,0.00
2018-05-27T22:33:20.390Z,0.00
2018-05-27T22:34:20.430Z,0.00
2018-05-27T22:36:12.780Z,0.00
2018-05-27T22:37:12.707Z,0.00
2018-05-27T22:39:06.142Z,0.00
2018-05-27T22:40:05.681Z,0.00
2018-05-27T22:41:59.536Z,0.00
2018-05-27T22:42:59.477Z,0.00
2018-05-27T22:44:53.354Z,0.00
2018-05-27T22:45:52.794Z,0.00
2018-05-27T22:47:46.772Z,0.00
2018-05-27T22:48:46.239Z,0.00
2018-05-27T22:50:40.598Z,0.00
2018-05-27T22:51:39.124Z,0.00
2018-05-27T22:53:33.502Z,0.00
2018-05-27T22:54:32.927Z,0.00
2018-05-27T22:56:25.900Z,0.00
2018-05-27T22:57:26.423Z,0.00
2018-05-27T22:59:19.314Z,0.00
2018-05-27T23:01:32.729Z,0.00
2018-05-27T23:02:32.277Z,0.00
2018-05-27T23:04:25.864Z,0.00
2018-05-27T23:05:25.399Z,0.00
2018-05-27T23:07:19.212Z,0.00
2018-05-27T23:08:20.260Z,0.00
2018-05-27T23:10:13.138Z,0.00
2018-05-27T23:11:12.370Z,0.00
2018-05-27T23:13:06.508Z,0.00
2018-05-27T23:14:05.962Z,0.00
2018-05-27T23:16:00.406Z,0.00
2018-05-27T23:17:00.329Z,0.00
2018-05-27T23:18:52.712Z,0.00
2018-05-27T23:19:52.836Z,0.00
2018-05-27T23:21:46.082Z,0.00
2018-05-27T23:22:46.081Z,0.00
2018-05-27T23:24:39.470Z,0.00
2018-05-27T23:25:39.922Z,0.00
2018-05-27T23:27:33.476Z,0.00
2018-05-27T23:28:32.826Z,0.00
2018-05-27T23:30:26.235Z,0.00
2018-05-27T23:31:26.181Z,0.00
2018-05-27T23:33:19.607Z,0.00
2018-05-27T23:34:20.550Z,0.00
2018-05-27T23:36:13.201Z,0.00
2018-05-27T23:37:13.925Z,0.00
2018-05-27T23:39:06.874Z,0.00
2018-05-27T23:40:07.253Z,0.00
2018-05-27T23:41:59.769Z,0.00
2018-05-27T23:43:00.649Z,0.00
2018-05-27T23:44:53.122Z,0.00
2018-05-27T23:45:53.601Z,0.00
2018-05-27T23:47:46.595Z,0.00
2018-05-27T23:48:46.594Z,0.00
2018-05-27T23:50:40.895Z,0.00
2018-05-27T23:51:39.457Z,0.00
2018-05-27T23:53:32.825Z,0.00
2018-05-27T23:54:32.687Z,0.00
2018-05-27T23:56:26.168Z,0.00
2018-05-27T23:57:25.779Z,0.00
2018-05-27T23:59:20.133Z,0.00
